Time;durP1;ratioP1;P1;durP2;ratioP2;P2;SDS_P1;SDS_P2;PMS_P1;PMS_P2;Temp;Humidity;BMP_temperature;BMP_pressure;BME280_temperature;BME280_humidity;BME280_pressure;Samples;Min_cycle;Max_cycle;Signal;HPM_P1;HPM_P2
2023/01/10 00:00:12;;;;;;;0.98;0.85;;;17.40;89.30;;;;;;5090397;28;20306;-62
2023/01/10 00:03:00;;;;;;;1.67;0.80;;;17.50;89.20;;;;;;5090721;28;20196;-63
2023/01/10 00:05:50;;;;;;;1.08;0.95;;;17.30;89.20;;;;;;5091190;28;20204;-62
2023/01/10 00:08:38;;;;;;;0.90;0.90;;;17.40;89.30;;;;;;5091206;28;20220;-63
2023/01/10 00:14:33;;;;;;;0.90;0.90;;;17.50;89.30;;;;;;5091008;28;20211;-62
2023/01/10 00:17:22;;;;;;;0.70;0.70;;;17.40;89.20;;;;;;5091815;28;20295;-63
2023/01/10 00:20:11;;;;;;;1.05;0.90;;;17.40;89.20;;;;;;5091155;28;20338;-62
2023/01/10 00:23:02;;;;;;;1.40;0.77;;;17.40;89.20;;;;;;5091263;28;20698;-62
2023/01/10 00:25:50;;;;;;;0.80;0.70;;;17.40;89.40;;;;;;5095181;28;20279;-62
2023/01/10 00:28:38;;;;;;;1.80;0.70;;;17.30;89.50;;;;;;5102540;28;20257;-62
2023/01/10 00:31:26;;;;;;;0.80;0.80;;;17.20;89.70;;;;;;5110314;28;20211;-62
2023/01/10 00:34:14;;;;;;;2.35;0.90;;;17.10;89.80;;;;;;5112993;28;20227;-63
2023/01/10 00:37:02;;;;;;;1.08;0.90;;;17.20;90.00;;;;;;5097062;28;20745;-62
2023/01/10 00:39:52;;;;;;;0.80;0.80;;;17.00;89.90;;;;;;5095122;28;20843;-62
2023/01/10 00:45:46;;;;;;;1.00;0.80;;;17.30;90.00;;;;;;5094548;28;20692;-62
2023/01/10 00:48:34;;;;;;;1.15;1.05;;;17.30;90.00;;;;;;5095305;28;20261;-62
2023/01/10 00:51:22;;;;;;;0.88;0.80;;;16.90;89.60;;;;;;5094372;28;20231;-62
2023/01/10 00:54:11;;;;;;;0.70;0.70;;;17.30;89.90;;;;;;5094386;28;20277;-62
2023/01/10 00:57:01;;;;;;;0.80;0.70;;;17.30;89.70;;;;;;5093493;28;20233;-62
2023/01/10 00:59:49;;;;;;;1.15;0.90;;;17.40;89.70;;;;;;5093565;28;20295;-62
2023/01/10 01:02:37;;;;;;;1.20;0.90;;;17.60;89.80;;;;;;5093799;28;20621;-62
2023/01/10 01:05:26;;;;;;;0.90;0.80;;;17.40;89.60;;;;;;5093880;28;20311;-62
2023/01/10 01:08:16;;;;;;;1.10;1.00;;;17.30;90.00;;;;;;5094140;28;20215;-63
2023/01/10 01:11:04;;;;;;;1.33;0.80;;;17.40;89.40;;;;;;5094569;28;20283;-62
2023/01/10 01:13:53;;;;;;;0.80;0.80;;;17.40;89.30;;;;;;5094090;28;20207;-63
2023/01/10 01:16:41;;;;;;;0.80;0.80;;;17.60;96.60;;;;;;5093965;28;20265;-62
2023/01/10 01:19:29;;;;;;;1.13;0.80;;;17.50;89.50;;;;;;5093031;28;20230;-62
2023/01/10 01:22:17;;;;;;;0.90;0.80;;;17.50;89.40;;;;;;5093115;28;20581;-62
2023/01/10 01:25:06;;;;;;;0.90;0.90;;;17.40;88.60;;;;;;5094023;28;20676;-62
2023/01/10 01:27:54;;;;;;;0.88;0.88;;;17.60;96.60;;;;;;5093062;28;20200;-63
2023/01/10 01:30:44;;;;;;;2.28;0.75;;;17.60;89.50;;;;;;5092349;28;20199;-62
2023/01/10 01:33:32;;;;;;;1.00;0.88;;;17.40;89.20;;;;;;5092562;28;20204;-63
2023/01/10 01:36:20;;;;;;;0.82;0.82;;;17.40;89.20;;;;;;5092436;28;20265;-62
2023/01/10 01:39:08;;;;;;;1.30;0.80;;;17.20;89.00;;;;;;5093512;28;20290;-62
2023/01/10 01:41:59;;;;;;;0.77;0.77;;;17.40;89.10;;;;;;5093202;28;20210;-63
2023/01/10 01:45:24;;;;;;;0.70;0.70;;;17.30;88.90;;;;;;5093548;28;20200;-62
2023/01/10 01:48:20;;;;;;;0.70;0.70;;;17.40;89.20;;;;;;5093307;28;20701;-62
2023/01/10 01:51:13;;;;;;;0.80;0.80;;;17.30;89.30;;;;;;5091790;28;20193;-62
2023/01/10 01:54:04;;;;;;;0.70;0.70;;;17.10;89.50;;;;;;5092758;28;20279;-62
2023/01/10 01:56:58;;;;;;;0.80;0.80;;;17.20;89.80;;;;;;5092586;28;20262;-62
2023/01/10 01:59:50;;;;;;;0.70;0.70;;;17.20;89.90;;;;;;5092291;28;20224;-62
2023/01/10 02:02:45;;;;;;;0.80;0.80;;;17.10;89.80;;;;;;5092515;28;20207;-62
2023/01/10 02:05:49;;;;;;;0.75;0.75;;;17.20;89.90;;;;;;5093561;28;20219;-62
2023/01/10 02:08:40;;;;;;;0.95;0.65;;;17.20;89.90;;;;;;5092277;28;20232;-62
2023/01/10 02:11:29;;;;;;;0.82;0.82;;;17.20;89.80;;;;;;5091965;28;20237;-62
2023/01/10 02:14:19;;;;;;;1.45;0.80;;;17.20;89.70;;;;;;5092538;28;20279;-62
2023/01/10 02:17:09;;;;;;;0.90;0.70;;;17.30;89.60;;;;;;5092135;28;20195;-62
2023/01/10 02:20:01;;;;;;;0.82;0.70;;;17.30;89.80;;;;;;5091855;28;20317;-62
2023/01/10 02:23:10;;;;;;;1.05;0.80;;;17.30;89.60;;;;;;5092262;28;20683;-62
2023/01/10 02:26:16;;;;;;;1.00;0.70;;;17.30;89.40;;;;;;5092115;28;20270;-62
2023/01/10 02:29:44;;;;;;;0.75;0.75;;;17.30;89.40;;;;;;5092516;28;20247;-62
2023/01/10 02:32:44;;;;;;;0.70;0.60;;;17.30;89.30;;;;;;5070330;28;20215;-62
2023/01/10 02:36:17;;;;;;;0.80;0.80;;;17.20;89.30;;;;;;5092599;28;20200;-62
2023/01/10 02:39:11;;;;;;;1.58;0.70;;;17.30;89.30;;;;;;5083898;28;20710;-63
2023/01/10 02:42:05;;;;;;;1.17;0.82;;;17.30;89.30;;;;;;5091967;28;20200;-62
2023/01/10 02:44:58;;;;;;;0.80;0.80;;;17.30;89.20;;;;;;5092433;28;20699;-62
2023/01/10 02:47:47;;;;;;;0.77;0.77;;;17.30;89.10;;;;;;5091970;28;20801;-62
2023/01/10 02:50:46;;;;;;;0.70;0.70;;;17.20;89.00;;;;;;5092208;28;20333;-62
2023/01/10 02:53:38;;;;;;;1.20;0.65;;;17.40;89.70;;;;;;5093051;28;20210;-62
2023/01/10 02:56:56;;;;;;;1.48;0.70;;;17.40;89.00;;;;;;5092053;28;20204;-62
2023/01/10 03:00:06;;;;;;;0.70;0.70;;;17.40;89.00;;;;;;5092142;28;20251;-63
2023/01/10 03:03:10;;;;;;;0.70;0.70;;;17.20;89.00;;;;;;5091873;28;20634;-63
2023/01/10 03:06:09;;;;;;;0.90;0.80;;;17.20;89.40;;;;;;5091978;28;20222;-62
2023/01/10 03:09:05;;;;;;;0.80;0.80;;;17.10;89.60;;;;;;5091549;28;20220;-62
2023/01/10 03:12:01;;;;;;;0.70;0.70;;;17.10;90.00;;;;;;5091982;28;20199;-62
2023/01/10 03:14:51;;;;;;;1.45;0.95;;;17.10;90.00;;;;;;5092777;28;20574;-62
2023/01/10 03:17:41;;;;;;;1.13;0.70;;;17.00;89.80;;;;;;5091652;28;20218;-62
2023/01/10 03:20:34;;;;;;;1.63;0.93;;;16.80;89.60;;;;;;5094521;28;20269;-63
2023/01/10 03:23:24;;;;;;;0.85;0.77;;;17.10;89.90;;;;;;5095486;28;20200;-62
2023/01/10 03:26:14;;;;;;;0.95;0.80;;;17.20;89.90;;;;;;5092024;28;20210;-62
2023/01/10 03:29:07;;;;;;;0.93;0.82;;;17.30;89.80;;;;;;5092128;28;20710;-62
2023/01/10 03:32:00;;;;;;;1.08;0.70;;;17.30;89.80;;;;;;5092385;28;20567;-62
2023/01/10 03:34:48;;;;;;;1.00;0.80;;;17.30;89.60;;;;;;5092486;28;20811;-63
2023/01/10 03:37:44;;;;;;;0.70;0.70;;;17.30;89.40;;;;;;5092408;28;20641;-62
2023/01/10 03:40:41;;;;;;;0.77;0.77;;;17.50;89.50;;;;;;5091311;28;20268;-62
2023/01/10 03:46:51;;;;;;;2.75;0.85;;;17.40;89.20;;;;;;5091925;28;20298;-62
2023/01/10 03:49:42;;;;;;;1.05;0.85;;;17.40;89.10;;;;;;5091290;28;20329;-63
2023/01/10 03:52:32;;;;;;;1.05;0.90;;;17.20;88.90;;;;;;5091603;28;20341;-62
2023/01/10 03:55:26;;;;;;;1.00;0.80;;;17.40;89.10;;;;;;5090945;28;20281;-62
2023/01/10 03:58:16;;;;;;;1.13;0.70;;;17.40;88.50;;;;;;5091464;28;20257;-62
2023/01/10 04:01:04;;;;;;;0.70;0.70;;;17.40;89.10;;;;;;5095053;28;20228;-62
2023/01/10 04:03:52;;;;;;;1.00;0.90;;;17.40;89.10;;;;;;5095876;28;20203;-62
2023/01/10 04:06:40;;;;;;;1.33;0.90;;;17.30;89.10;;;;;;5094666;28;20665;-63
2023/01/10 04:09:28;;;;;;;3.55;0.80;;;17.30;89.10;;;;;;5115787;23;20482;-65
2023/01/10 04:12:18;;;;;;;0.90;0.90;;;17.00;88.80;;;;;;5094806;28;20673;-63
2023/01/10 04:15:07;;;;;;;2.38;0.93;;;17.00;89.40;;;;;;5095281;28;20696;-65
2023/01/10 04:17:55;;;;;;;1.08;0.90;;;17.30;89.00;;;;;;5094520;28;20252;-67
2023/01/10 04:20:43;;;;;;;0.80;0.80;;;17.40;89.00;;;;;;5073931;28;20300;-65
2023/01/10 04:23:31;;;;;;;0.75;0.75;;;17.40;89.20;;;;;;5074250;28;20228;-65
2023/01/10 04:26:19;;;;;;;0.90;0.90;;;17.30;89.20;;;;;;5074193;28;20228;-62
2023/01/10 04:29:08;;;;;;;1.00;0.70;;;17.20;89.50;;;;;;5073860;28;20234;-65
2023/01/10 04:31:57;;;;;;;1.33;0.80;;;17.10;89.60;;;;;;5074377;28;20201;-63
2023/01/10 04:34:45;;;;;;;0.98;0.80;;;17.20;89.80;;;;;;5074090;28;20724;-64
2023/01/10 04:37:33;;;;;;;0.80;0.80;;;17.10;89.90;;;;;;5074613;28;20201;-63
2023/01/10 04:40:22;;;;;;;1.15;0.90;;;17.00;89.80;;;;;;5074197;28;20304;-63
2023/01/10 04:43:10;;;;;;;0.98;0.70;;;17.10;89.80;;;;;;5073819;28;20193;-66
2023/01/10 04:46:00;;;;;;;0.82;0.82;;;17.20;89.80;;;;;;5073836;28;20330;-65
2023/01/10 04:48:48;;;;;;;1.40;0.90;;;17.00;89.50;;;;;;5073695;28;20224;-65
2023/01/10 04:51:36;;;;;;;0.90;0.90;;;17.20;89.70;;;;;;5073915;28;20197;-65
2023/01/10 04:54:24;;;;;;;1.13;0.80;;;17.00;89.40;;;;;;5073606;28;20256;-68
2023/01/10 04:57:12;;;;;;;0.82;0.82;;;17.30;89.60;;;;;;5073586;28;20287;-64
2023/01/10 05:00:00;;;;;;;1.88;0.90;;;17.10;89.30;;;;;;5073153;28;20256;-68
2023/01/10 05:02:54;;;;;;;1.00;0.80;;;17.20;89.40;;;;;;5074172;28;20232;-65
2023/01/10 05:05:42;;;;;;;2.08;0.90;;;17.30;89.50;;;;;;5073642;28;20209;-64
2023/01/10 05:08:30;;;;;;;1.30;1.05;;;17.40;99.20;;;;;;5073454;28;20201;-68
2023/01/10 05:11:18;;;;;;;1.05;0.90;;;17.30;89.40;;;;;;5073123;28;20283;-64
2023/01/10 05:14:07;;;;;;;1.95;1.02;;;17.30;89.30;;;;;;5073265;28;20598;-62
2023/01/10 05:16:55;;;;;;;2.15;0.95;;;17.30;89.30;;;;;;5073380;28;20586;-64
2023/01/10 05:19:45;;;;;;;3.72;1.02;;;17.30;90.00;;;;;;5072713;28;20217;-63
2023/01/10 05:22:33;;;;;;;1.98;0.90;;;17.20;89.20;;;;;;5073021;28;20695;-65
2023/01/10 05:25:22;;;;;;;1.27;0.90;;;17.30;89.30;;;;;;5073316;28;20205;-65
2023/01/10 05:28:10;;;;;;;1.20;0.82;;;17.30;89.30;;;;;;5073097;28;20205;-65
2023/01/10 05:30:58;;;;;;;1.10;0.93;;;17.30;89.30;;;;;;5072744;28;20231;-66
2023/01/10 05:33:46;;;;;;;2.90;1.20;;;17.30;89.20;;;;;;5072888;28;20213;-65
2023/01/10 05:36:36;;;;;;;2.42;1.17;;;17.30;89.10;;;;;;5072938;28;20704;-62
2023/01/10 05:39:24;;;;;;;1.33;0.95;;;17.30;89.20;;;;;;5072326;28;20224;-66
2023/01/10 05:42:12;;;;;;;1.50;0.90;;;17.20;89.40;;;;;;5073303;28;20605;-64
2023/01/10 05:45:00;;;;;;;2.35;0.90;;;17.10;89.60;;;;;;5072724;28;20201;-65
2023/01/10 05:47:48;;;;;;;1.55;1.00;;;17.10;89.80;;;;;;5073147;28;20206;-66
2023/01/10 05:50:36;;;;;;;1.50;0.90;;;16.90;89.70;;;;;;5072338;28;20295;-67
2023/01/10 05:53:25;;;;;;;1.15;0.90;;;17.00;89.90;;;;;;5072586;28;20201;-66
2023/01/10 05:56:13;;;;;;;1.95;0.90;;;17.00;90.00;;;;;;5072466;28;20283;-66
2023/01/10 05:59:01;;;;;;;2.22;1.00;;;17.20;90.10;;;;;;5072333;28;20223;-66
2023/01/10 06:02:09;;;;;;;1.65;0.80;;;17.20;90.00;;;;;;5072262;28;20548;-66
2023/01/10 06:04:57;;;;;;;1.33;1.00;;;17.20;90.00;;;;;;5072921;28;20200;-64
2023/01/10 06:07:45;;;;;;;1.55;0.90;;;17.30;90.00;;;;;;5072594;28;20200;-65
2023/01/10 06:10:35;;;;;;;1.73;1.42;;;17.30;89.80;;;;;;5071826;28;20850;-66
2023/01/10 06:13:23;;;;;;;2.95;1.00;;;17.30;89.60;;;;;;5072337;28;20209;-67
2023/01/10 06:16:11;;;;;;;1.17;0.95;;;17.20;89.40;;;;;;5072177;28;20254;-66
2023/01/10 06:18:59;;;;;;;1.17;1.08;;;17.30;89.30;;;;;;5071996;28;20693;-64
2023/01/10 06:21:47;;;;;;;3.28;1.10;;;17.40;89.40;;;;;;5072008;28;20216;-63
2023/01/10 06:24:35;;;;;;;1.77;1.00;;;17.30;89.20;;;;;;5072053;28;20235;-65
2023/01/10 06:27:25;;;;;;;2.25;1.00;;;17.40;89.20;;;;;;5071407;28;20228;-63
2023/01/10 06:30:14;;;;;;;0.82;0.82;;;17.30;89.10;;;;;;5071639;28;20689;-64
2023/01/10 06:33:03;;;;;;;1.48;1.00;;;17.40;89.20;;;;;;5072336;28;20193;-67
2023/01/10 06:35:51;;;;;;;1.13;1.00;;;17.30;89.10;;;;;;5071780;28;20204;-67
2023/01/10 06:38:39;;;;;;;1.13;1.00;;;17.30;89.10;;;;;;5072230;28;20382;-63
2023/01/10 06:41:27;;;;;;;1.70;1.27;;;17.30;89.10;;;;;;5071268;28;21014;-62
2023/01/10 06:44:16;;;;;;;1.30;1.20;;;17.30;89.80;;;;;;5071552;28;20734;-64
2023/01/10 06:47:04;;;;;;;1.17;0.82;;;17.30;89.10;;;;;;5071530;28;20711;-63
2023/01/10 06:49:52;;;;;;;2.45;0.93;;;17.30;89.10;;;;;;5071104;28;20687;-66
2023/01/10 06:52:41;;;;;;;1.58;0.88;;;17.30;89.10;;;;;;5071812;28;20334;-63
2023/01/10 06:55:30;;;;;;;6.03;1.45;;;17.30;89.00;;;;;;5072057;28;20236;-63
2023/01/10 06:58:18;;;;;;;1.98;1.40;;;17.30;96.60;;;;;;5071360;28;20222;-63
2023/01/10 07:01:13;;;;;;;1.50;1.40;;;17.30;89.00;;;;;;5066682;28;20658;-62
2023/01/10 07:04:01;;;;;;;2.78;1.13;;;17.30;89.10;;;;;;5065056;28;20673;-65
2023/01/10 07:06:49;;;;;;;1.27;1.00;;;17.30;89.20;;;;;;5066951;28;20211;-64
2023/01/10 07:09:37;;;;;;;2.90;1.23;;;17.20;89.40;;;;;;5063114;28;20221;-63
2023/01/10 07:12:25;;;;;;;3.53;1.00;;;17.10;89.80;;;;;;5054633;28;20193;-64
2023/01/10 07:15:13;;;;;;;0.80;0.80;;;17.20;90.00;;;;;;5067641;28;20285;-63
2023/01/10 07:18:03;;;;;;;2.50;1.08;;;17.30;90.10;;;;;;5065542;28;20590;-65
2023/01/10 07:20:51;;;;;;;1.40;1.30;;;17.40;90.10;;;;;;5053981;28;20224;-63
2023/01/10 07:23:40;;;;;;;1.55;1.10;;;17.60;90.10;;;;;;5063646;28;20244;-64
2023/01/10 07:26:28;;;;;;;2.67;1.33;;;17.70;90.00;;;;;;5070414;28;20205;-63
2023/01/10 07:29:16;;;;;;;1.83;1.23;;;17.80;90.00;;;;;;5069484;28;21036;-63
2023/01/10 07:32:05;;;;;;;2.03;0.98;;;18.00;89.90;;;;;;5070395;28;20277;-66
2023/01/10 07:34:54;;;;;;;1.88;1.05;;;18.10;89.50;;;;;;5057468;28;20287;-63
2023/01/10 07:37:42;;;;;;;2.15;1.00;;;18.30;89.50;;;;;;5064760;28;20616;-63
2023/01/10 07:40:30;;;;;;;2.10;1.25;;;18.40;89.30;;;;;;5063021;28;20326;-63
2023/01/10 07:43:18;;;;;;;1.40;1.00;;;18.50;89.10;;;;;;5066401;28;20272;-63
2023/01/10 07:46:08;;;;;;;3.97;1.13;;;17.80;88.10;;;;;;5063114;28;20288;-65
2023/01/10 07:48:56;;;;;;;1.92;1.02;;;18.70;88.70;;;;;;5061006;28;20221;-62
2023/01/10 07:51:46;;;;;;;5.78;1.40;;;18.60;88.40;;;;;;5058611;28;20202;-61
2023/01/10 07:54:34;;;;;;;1.55;1.00;;;18.90;88.70;;;;;;5060952;28;20240;-64
2023/01/10 07:57:22;;;;;;;3.13;1.80;;;18.70;88.30;;;;;;5064887;28;20253;-63
2023/01/10 08:00:11;;;;;;;1.25;1.15;;;18.50;88.10;;;;;;5063385;28;20831;-64
2023/01/10 08:02:59;;;;;;;1.30;1.20;;;18.70;88.20;;;;;;5068627;28;20367;-63
2023/01/10 08:05:47;;;;;;;2.03;1.27;;;18.70;88.20;;;;;;5060084;28;20203;-63
2023/01/10 08:08:37;;;;;;;1.40;1.30;;;18.60;88.10;;;;;;5065816;28;20303;-62
2023/01/10 08:11:25;;;;;;;1.85;1.25;;;18.90;88.30;;;;;;5063927;28;20881;-63
2023/01/10 08:14:13;;;;;;;3.83;1.23;;;18.50;87.90;;;;;;5058062;28;20689;-64
2023/01/10 08:17:01;;;;;;;4.07;1.38;;;18.60;88.00;;;;;;5060231;28;20196;-62
2023/01/10 08:19:49;;;;;;;6.47;1.35;;;18.60;88.10;;;;;;5062375;28;20646;-63
2023/01/10 08:22:38;;;;;;;2.50;1.00;;;18.60;88.10;;;;;;5067200;28;20282;-64
2023/01/10 08:25:09;;;;;;;6.13;1.80;;;18.60;88.00;;;;;;5074811;28;20571;-63
2023/01/10 08:27:38;;;;;;;1.33;1.23;;;18.60;87.90;;;;;;5065798;28;20211;-61
2023/01/10 08:30:07;;;;;;;1.90;1.60;;;18.60;88.20;;;;;;5062758;28;20230;-63
2023/01/10 08:32:35;;;;;;;1.80;1.00;;;18.60;88.30;;;;;;5068684;28;20200;-64
2023/01/10 08:35:03;;;;;;;4.68;1.40;;;18.60;88.60;;;;;;5057339;28;20208;-63
2023/01/10 08:37:31;;;;;;;2.78;1.20;;;18.50;88.70;;;;;;5064035;28;20250;-64
2023/01/10 08:39:59;;;;;;;2.80;1.20;;;18.50;89.00;;;;;;5064889;28;20252;-65
2023/01/10 08:42:28;;;;;;;3.03;1.33;;;18.60;89.60;;;;;;5067608;28;20224;-62
2023/01/10 08:44:56;;;;;;;1.98;1.10;;;18.40;89.70;;;;;;5070074;28;20211;-63
2023/01/10 08:47:35;;;;;;;3.90;1.20;;;18.50;89.90;;;;;;5062049;28;20205;-66
2023/01/10 08:50:03;;;;;;;4.93;1.65;;;18.50;90.10;;;;;;5061560;28;20228;-63
2023/01/10 08:52:34;;;;;;;2.78;1.30;;;18.60;90.40;;;;;;5063566;28;20206;-64
2023/01/10 08:55:02;;;;;;;1.90;1.48;;;18.60;90.50;;;;;;5065826;28;20300;-63
2023/01/10 08:57:32;;;;;;;6.30;1.33;;;18.70;90.50;;;;;;5063068;28;20216;-64
2023/01/10 09:00:01;;;;;;;2.65;1.40;;;19.00;90.50;;;;;;5060473;28;20248;-63
2023/01/10 09:02:29;;;;;;;2.30;1.83;;;18.70;90.40;;;;;;5057918;28;20251;-63
2023/01/10 09:04:57;;;;;;;5.50;1.70;;;18.70;90.40;;;;;;5068373;28;20205;-62
2023/01/10 09:07:25;;;;;;;4.07;1.40;;;18.80;90.40;;;;;;5062148;28;20197;-62
2023/01/10 09:09:52;;;;;;;5.07;1.63;;;18.70;90.30;;;;;;5069492;28;20228;-62
2023/01/10 09:15:08;;;;;;;7.35;1.73;;;18.80;90.10;;;;;;5070657;28;20208;-63
2023/01/10 09:17:37;;;;;;;3.60;1.40;;;18.80;90.10;;;;;;5056392;28;20227;-62
2023/01/10 09:20:08;;;;;;;1.48;1.30;;;18.80;90.10;;;;;;5069461;28;20224;-61
2023/01/10 09:22:36;;;;;;;1.10;1.00;;;18.90;90.00;;;;;;5058104;28;20228;-62
2023/01/10 09:25:08;;;;;;;1.25;1.15;;;18.90;90.10;;;;;;5062369;28;20289;-62
2023/01/10 09:27:36;;;;;;;2.83;1.20;;;18.80;90.00;;;;;;5063039;28;20266;-62
2023/01/10 09:30:05;;;;;;;7.63;1.75;;;18.80;90.00;;;;;;5060989;28;20274;-64
2023/01/10 09:32:34;;;;;;;5.10;1.15;;;18.80;89.90;;;;;;5072978;28;20309;-63
2023/01/10 09:35:05;;;;;;;3.35;1.25;;;18.90;90.10;;;;;;5069887;28;20208;-64
2023/01/10 09:37:33;;;;;;;3.72;1.50;;;18.80;90.00;;;;;;5068592;28;20233;-63
2023/01/10 09:40:01;;;;;;;2.60;1.15;;;18.70;89.90;;;;;;5062059;28;20709;-62
2023/01/10 09:42:46;;;;;;;5.75;1.52;;;18.80;89.80;;;;;;5073216;28;20224;-63
2023/01/10 09:45:19;;;;;;;1.55;1.33;;;18.80;89.90;;;;;;5065240;28;20205;-62
2023/01/10 09:47:53;;;;;;;2.72;1.60;;;18.70;90.00;;;;;;5070555;28;20201;-63
2023/01/10 09:50:30;;;;;;;2.53;1.13;;;18.50;90.00;;;;;;5067578;28;20258;-65
2023/01/10 09:53:04;;;;;;;3.38;1.30;;;18.60;90.20;;;;;;5067011;28;20251;-65
2023/01/10 09:55:35;;;;;;;2.88;1.48;;;18.60;90.30;;;;;;5060381;28;20201;-65
2023/01/10 09:58:09;;;;;;;2.90;1.20;;;18.60;90.40;;;;;;5060149;28;20207;-64
2023/01/10 10:00:41;;;;;;;3.70;1.05;;;18.60;90.40;;;;;;5069440;28;20213;-65
2023/01/10 10:03:22;;;;;;;2.08;1.23;;;18.60;90.40;;;;;;5071094;28;20262;-68
2023/01/10 10:05:50;;;;;;;1.95;1.00;;;18.60;90.40;;;;;;5060043;28;20198;-68
2023/01/10 10:08:22;;;;;;;3.60;1.58;;;18.70;97.10;;;;;;5068756;28;20196;-64
2023/01/10 10:11:10;;;;;;;2.08;1.30;;;18.80;90.40;;;;;;5072498;28;20232;-65
2023/01/10 10:13:53;;;;;;;2.17;1.40;;;18.80;90.40;;;;;;5071667;28;20184;-65
2023/01/10 10:16:29;;;;;;;5.78;1.38;;;19.00;90.40;;;;;;5066230;28;20282;-65
2023/01/10 10:19:04;;;;;;;3.45;1.52;;;18.70;90.20;;;;;;5063852;28;20225;-65
2023/01/10 10:21:43;;;;;;;1.48;1.20;;;18.90;90.30;;;;;;5057183;28;20200;-64
2023/01/10 10:24:29;;;;;;;4.88;1.13;;;18.90;90.20;;;;;;5070903;28;20231;-66
2023/01/10 10:26:59;;;;;;;3.53;1.52;;;19.00;90.30;;;;;;5060128;28;20205;-64
2023/01/10 10:30:12;;;;;;;1.70;1.08;;;18.80;90.10;;;;;;5060536;28;20217;-63
2023/01/10 10:32:53;;;;;;;1.58;1.40;;;18.90;90.20;;;;;;5040004;28;20192;-64
2023/01/10 10:35:29;;;;;;;4.88;1.50;;;18.90;90.20;;;;;;5064468;28;20271;-62
2023/01/10 10:38:02;;;;;;;2.60;1.13;;;18.90;90.10;;;;;;5061338;28;20218;-65
2023/01/10 10:40:34;;;;;;;1.20;1.10;;;18.90;90.10;;;;;;5060972;28;20235;-63
2023/01/10 10:43:13;;;;;;;1.17;1.00;;;18.90;90.10;;;;;;5064139;28;20221;-64
2023/01/10 10:45:45;;;;;;;2.55;1.45;;;18.90;90.10;;;;;;5064277;28;20198;-64
2023/01/10 10:48:16;;;;;;;1.48;1.23;;;18.80;90.00;;;;;;5066584;28;20258;-65
2023/01/10 10:50:53;;;;;;;1.52;1.20;;;18.90;90.10;;;;;;5064002;28;20208;-63
2023/01/10 10:53:21;;;;;;;1.92;1.20;;;18.80;90.00;;;;;;5066710;28;20193;-61
2023/01/10 10:55:49;;;;;;;3.53;2.45;;;18.90;90.10;;;;;;5053328;28;20209;-63
2023/01/10 10:58:18;;;;;;;4.55;1.50;;;18.60;96.70;;;;;;5059724;28;20208;-62
2023/01/10 11:00:47;;;;;;;1.20;1.10;;;18.70;90.30;;;;;;5056052;28;20263;-62
2023/01/10 11:03:25;;;;;;;1.27;1.17;;;18.70;90.30;;;;;;5059904;28;20224;-62
2023/01/10 11:05:55;;;;;;;3.42;1.60;;;18.70;90.50;;;;;;5061572;28;20243;-63
2023/01/10 11:08:24;;;;;;;3.25;1.58;;;18.70;97.20;;;;;;5057535;28;20200;-63
2023/01/10 11:10:54;;;;;;;4.78;1.88;;;18.80;90.60;;;;;;5059801;28;20209;-63
2023/01/10 11:13:35;;;;;;;2.85;1.50;;;18.90;90.70;;;;;;5062428;28;20258;-64
2023/01/10 11:16:05;;;;;;;3.33;1.40;;;18.90;90.70;;;;;;5056716;28;20288;-63
2023/01/10 11:18:37;;;;;;;7.43;1.42;;;18.90;99.80;;;;;;5058243;28;20201;-62
2023/01/10 11:21:11;;;;;;;2.90;1.20;;;19.00;90.70;;;;;;5057843;28;20236;-63
2023/01/10 11:23:48;;;;;;;2.00;1.13;;;19.00;90.70;;;;;;5065228;28;20223;-63
2023/01/10 11:26:26;;;;;;;2.35;1.25;;;19.10;90.70;;;;;;5059045;28;20205;-63
2023/01/10 11:29:06;;;;;;;1.23;1.13;;;19.10;90.60;;;;;;5065515;28;20275;-63
2023/01/10 11:31:36;;;;;;;1.33;1.10;;;19.10;90.70;;;;;;5069321;28;20196;-62
2023/01/10 11:34:07;;;;;;;2.10;1.10;;;19.20;90.50;;;;;;5070052;28;20266;-63
2023/01/10 11:36:55;;;;;;;4.38;1.15;;;19.20;90.50;;;;;;5051723;28;20193;-63
2023/01/10 11:39:24;;;;;;;2.83;1.25;;;19.20;90.30;;;;;;5058758;28;20279;-62
2023/01/10 11:41:54;;;;;;;3.08;1.30;;;19.00;90.30;;;;;;5065291;28;20204;-65
2023/01/10 11:44:25;;;;;;;1.60;1.00;;;19.20;90.30;;;;;;5063943;28;20221;-61
2023/01/10 11:46:56;;;;;;;5.35;1.35;;;19.20;90.30;;;;;;5060239;28;20205;-62
2023/01/10 11:49:30;;;;;;;1.85;1.40;;;19.10;90.20;;;;;;5061272;28;20259;-62
2023/01/10 11:52:04;;;;;;;4.75;1.40;;;19.20;90.20;;;;;;5061256;28;20211;-61
2023/01/10 11:54:33;;;;;;;4.00;1.17;;;19.10;90.10;;;;;;5060651;28;20267;-62
2023/01/10 11:57:04;;;;;;;2.58;1.15;;;19.20;90.10;;;;;;5056749;28;20201;-62
2023/01/10 11:59:32;;;;;;;3.50;1.50;;;19.20;90.10;;;;;;5065024;28;20208;-68
2023/01/10 12:02:04;;;;;;;4.18;1.35;;;19.20;90.10;;;;;;5063048;28;20254;-65
2023/01/10 12:04:39;;;;;;;1.70;1.02;;;19.20;90.10;;;;;;5061090;28;20259;-61
2023/01/10 12:07:11;;;;;;;5.72;1.30;;;19.20;90.10;;;;;;5065187;28;20196;-62
2023/01/10 12:09:43;;;;;;;2.25;1.15;;;19.20;90.10;;;;;;5064396;28;20307;-61
2023/01/10 12:12:18;;;;;;;1.95;1.23;;;19.30;90.20;;;;;;5060069;28;20197;-62
2023/01/10 12:14:46;;;;;;;3.22;1.20;;;19.30;90.20;;;;;;5067067;28;20232;-61
2023/01/10 12:17:22;;;;;;;1.80;1.20;;;19.30;90.10;;;;;;5071668;28;20207;-61
2023/01/10 12:19:52;;;;;;;4.68;1.63;;;19.20;90.10;;;;;;5066881;28;20223;-62
2023/01/10 12:22:28;;;;;;;1.90;1.73;;;19.20;90.20;;;;;;5072228;28;20197;-63
2023/01/10 12:24:58;;;;;;;3.70;1.60;;;19.10;90.20;;;;;;5065634;28;20295;-63
2023/01/10 12:27:28;;;;;;;2.35;1.35;;;19.10;90.40;;;;;;5066585;28;20197;-62
2023/01/10 12:30:03;;;;;;;1.98;1.20;;;19.10;90.50;;;;;;5066731;28;20222;-63
2023/01/10 12:32:41;;;;;;;3.00;1.55;;;19.10;90.50;;;;;;5058891;28;20283;-61
2023/01/10 12:35:15;;;;;;;1.67;1.15;;;19.10;90.50;;;;;;5072575;28;20208;-62
2023/01/10 12:37:48;;;;;;;21.20;4.15;;;19.10;90.40;;;;;;5070339;28;20196;-62
2023/01/10 12:40:23;;;;;;;9.43;2.80;;;19.20;90.40;;;;;;5066767;28;20221;-61
2023/01/10 12:45:48;;;;;;;5.88;1.83;;;19.30;90.40;;;;;;5062828;28;20208;-62
2023/01/10 12:48:23;;;;;;;3.15;1.30;;;19.30;90.30;;;;;;5066849;28;20266;-63
2023/01/10 12:50:57;;;;;;;2.28;1.40;;;19.30;90.20;;;;;;5065594;28;20200;-62
2023/01/10 12:53:33;;;;;;;3.45;1.75;;;19.30;90.10;;;;;;5061655;28;20193;-62
2023/01/10 12:56:06;;;;;;;77.80;12.27;;;19.30;90.10;;;;;;5068448;28;20208;-63
2023/01/10 12:58:41;;;;;;;86.68;11.23;;;19.40;99.10;;;;;;5066897;28;20203;-62
2023/01/10 13:01:15;;;;;;;73.78;9.00;;;19.30;90.10;;;;;;5067014;28;20196;-62
2023/01/10 13:03:45;;;;;;;50.58;7.50;;;19.30;90.10;;;;;;5066168;28;20224;-61
2023/01/10 13:06:22;;;;;;;124.82;22.52;;;19.40;90.10;;;;;;5065703;28;20615;-61
2023/01/10 13:08:52;;;;;;;88.95;13.10;;;19.40;90.00;;;;;;5063013;28;20233;-62
2023/01/10 13:11:25;;;;;;;29.50;6.18;;;19.50;90.00;;;;;;5073490;28;20200;-61
2023/01/10 13:13:57;;;;;;;20.42;5.22;;;19.50;90.00;;;;;;5074975;28;20219;-63
2023/01/10 13:16:36;;;;;;;22.95;3.63;;;19.50;90.00;;;;;;5073229;28;20287;-63
2023/01/10 13:19:22;;;;;;;28.95;4.47;;;19.40;90.10;;;;;;5068251;28;20319;-63
2023/01/10 13:21:51;;;;;;;11.25;2.90;;;19.40;90.10;;;;;;5067033;28;20212;-63
2023/01/10 13:24:23;;;;;;;21.25;3.58;;;19.60;90.20;;;;;;5066001;28;20226;-63
2023/01/10 13:26:53;;;;;;;13.65;2.95;;;19.50;90.10;;;;;;5061871;28;20201;-62
2023/01/10 13:29:24;;;;;;;9.73;2.65;;;19.50;90.10;;;;;;5073394;28;20248;-60
2023/01/10 13:31:56;;;;;;;12.10;3.42;;;19.50;90.20;;;;;;5063785;28;20200;-62
2023/01/10 13:34:27;;;;;;;9.52;2.97;;;19.30;90.00;;;;;;5063678;28;20205;-60
2023/01/10 13:36:58;;;;;;;8.77;2.20;;;19.40;90.20;;;;;;5070327;28;20200;-60
2023/01/10 13:39:34;;;;;;;11.38;2.38;;;19.30;90.20;;;;;;5074777;28;20273;-61
2023/01/10 13:45:27;;;;;;;617.85;92.07;;;19.30;90.40;;;;;;5073733;28;20220;-63
2023/01/10 13:48:18;;;;;;;425.40;63.90;;;19.30;90.40;;;;;;5063176;28;20231;-60
2023/01/10 13:50:52;;;;;;;247.55;37.67;;;19.40;90.40;;;;;;5070098;28;20211;-61
2023/01/10 13:53:56;;;;;;;51.05;10.35;;;19.50;90.40;;;;;;5070062;28;20228;-61
2023/01/10 13:56:33;;;;;;;44.35;6.30;;;19.50;90.30;;;;;;5054342;28;20219;-61
2023/01/10 14:04:44;;;;;;;10.75;2.70;;;19.80;90.20;;;;;;5054334;28;20259;-62
2023/01/10 14:07:21;;;;;;;9.85;3.15;;;20.00;90.20;;;;;;5068626;28;20203;-61
2023/01/10 14:09:50;;;;;;;10.50;2.33;;;20.10;90.20;;;;;;5074555;28;20234;-63
2023/01/10 14:12:30;;;;;;;12.73;2.55;;;20.10;90.10;;;;;;5073451;28;20280;-62
2023/01/10 14:15:05;;;;;;;13.27;2.42;;;20.20;90.10;;;;;;5074529;28;20258;-62
2023/01/10 14:17:36;;;;;;;7.90;2.00;;;20.30;90.00;;;;;;5074140;28;20200;-61
2023/01/10 14:20:19;;;;;;;10.52;2.30;;;20.20;89.80;;;;;;5070875;28;20235;-61
2023/01/10 14:23:03;;;;;;;8.60;2.00;;;20.40;89.70;;;;;;5073180;28;20231;-61
2023/01/10 14:25:34;;;;;;;7.15;1.88;;;20.40;89.40;;;;;;5072936;28;20216;-62
2023/01/10 14:28:05;;;;;;;6.88;2.33;;;20.40;89.30;;;;;;5071719;28;20197;-61
2023/01/10 14:30:35;;;;;;;7.43;2.20;;;20.40;89.00;;;;;;5072750;28;20213;-61